Terminal Aerodrome Forecast
Issued by NWS

Home | Current Version | Previous Version | Text Only | Print | Product List | Glossary On
Versions: 1 2 3 4 5 6 7 8 9 10 11 12 13 14 15 16 17 18
000
FTUS46 KPQR 162334
TAFONP
TAF
KONP 162334Z 1700/1724 17009KT P6SM SCT030 BKN080
     FM170200 13007KT P6SM SCT070 OVC150
     FM170600 15011KT 6SM -RA SCT030 OVC050
     FM171000 17014G24KT 6SM -RA SCT025 OVC045
     FM172100 17028G42KT 4SM -RA BR SCT015 BKN025 OVC040=

USA.gov is the U.S. government's official web portal to all federal, state and local government web resources and services.